Terminal Aerodrome Forecast
Issued by NWS

Home | Current Version | Previous Version | Text Only | Print | Product List | Glossary Off
Versions: 1 2 3 4 5 6 7 8 9 10 11 12 13 14 15 16 17 18 19 20 21 22 23 24 25

865
FTUS43 KGRB 221120
TAFMTW
TAF
KMTW 221120Z 2212/2312 VRB03KT 1/4SM -DZ FG SCT004 OVC009
      TEMPO 2212/2216 1/2SM FG OVC004
     FM221600 00000KT 1/2SM -DZ FG OVC005
     FM221800 VRB03KT 2SM BR OVC006
     FM230700 VRB03KT 3/4SM BR OVC003=

USA.gov is the U.S. government's official web portal to all federal, state and local government web resources and services.